UTA7775 USRO-VQPR
Flight info
| Callsign | UTA7775 |
|---|---|
| Flight time | N/A |
| Altitude | 37000 |
| Route | DCT |
| Aircraft | B738/M-SDE2E3FGHIRWXY/LB1 |
Departure
| Time | 2026-04-21 10:19 |
|---|---|
| Airport | Noyabrsk Airport (USRO) |
Arrival
| Time | N/A |
|---|---|
| Airport | Paro International Airport (VQPR) |
| Time | Latitude | Longitude | Altitude | Speed | Heading |
|---|---|---|---|---|---|
| 2026-04-21 10:02 | 63.18213 | 75.27271 | 454 ft | 0 kts | 114° |
| 2026-04-21 10:15 | 63.18227 | 75.27368 | 454 ft | 11 kts | 19° |
| 2026-04-21 10:15 | 63.18271 | 75.27256 | 454 ft | 15 kts | 291° |
| 2026-04-21 10:15 | 63.18314 | 75.27042 | 457 ft | 13 kts | 295° |
| 2026-04-21 10:15 | 63.18378 | 75.26902 | 456 ft | 14 kts | 3° |
| 2026-04-21 10:16 | 63.18464 | 75.26980 | 455 ft | 16 kts | 26° |
| 2026-04-21 10:16 | 63.18620 | 75.27140 | 450 ft | 30 kts | 25° |
| 2026-04-21 10:16 | 63.18812 | 75.27340 | 446 ft | 30 kts | 26° |
| 2026-04-21 10:16 | 63.19003 | 75.27541 | 438 ft | 31 kts | 25° |
| 2026-04-21 10:17 | 63.19197 | 75.27743 | 433 ft | 30 kts | 25° |
| 2026-04-21 10:17 | 63.19348 | 75.27940 | 437 ft | 14 kts | 36° |
| 2026-04-21 10:17 | 63.19376 | 75.27933 | 437 ft | 0 kts | 279° |
| 2026-04-21 10:17 | 63.19363 | 75.27901 | 438 ft | 3 kts | 211° |
| 2026-04-21 10:18 | 63.19260 | 75.27793 | 433 ft | 55 kts | 204° |
| 2026-04-21 10:18 | 63.18622 | 75.27137 | 450 ft | 146 kts | 205° |
| 2026-04-21 10:18 | 63.17467 | 75.25959 | 582 ft | 212 kts | 202° |
| 2026-04-21 10:18 | 63.16007 | 75.25126 | 837 ft | 221 kts | 187° |
| 2026-04-21 10:19 | 63.14434 | 75.25046 | 1103 ft | 236 kts | 175° |
| 2026-04-21 10:19 | 63.12817 | 75.26099 | 1574 ft | 239 kts | 153° |
| 2026-04-21 10:19 | 63.11395 | 75.27745 | 2084 ft | 232 kts | 153° |
| 2026-04-21 10:19 | 63.09876 | 75.29341 | 2549 ft | 248 kts | 159° |
| 2026-04-21 10:20 | 63.08251 | 75.30730 | 3102 ft | 253 kts | 159° |
| 2026-04-21 10:20 | 63.06630 | 75.32098 | 3669 ft | 256 kts | 159° |
| 2026-04-21 10:20 | 63.04970 | 75.33515 | 4236 ft | 256 kts | 159° |
| 2026-04-21 10:20 | 63.03293 | 75.34952 | 4830 ft | 261 kts | 159° |
| 2026-04-21 10:21 | 63.01587 | 75.36396 | 5404 ft | 264 kts | 159° |
| 2026-04-21 10:21 | 62.99874 | 75.37852 | 5980 ft | 266 kts | 159° |
| 2026-04-21 10:21 | 62.98162 | 75.39313 | 6549 ft | 267 kts | 159° |
| 2026-04-21 10:21 | 62.96426 | 75.40795 | 7124 ft | 269 kts | 159° |
| 2026-04-21 10:22 | 62.94680 | 75.42287 | 7699 ft | 270 kts | 159° |
| 2026-04-21 10:22 | 62.92919 | 75.43791 | 8276 ft | 272 kts | 159° |
| 2026-04-21 10:22 | 62.91141 | 75.45309 | 8985 ft | 278 kts | 159° |
| 2026-04-21 10:22 | 62.89318 | 75.46865 | 9795 ft | 283 kts | 159° |
| 2026-04-21 10:23 | 62.87499 | 75.48416 | 10502 ft | 293 kts | 159° |
| 2026-04-21 10:23 | 62.85518 | 75.50103 | 10715 ft | 318 kts | 159° |
| 2026-04-21 10:23 | 62.83375 | 75.51925 | 10919 ft | 341 kts | 159° |
| 2026-04-21 10:23 | 62.81118 | 75.53842 | 11385 ft | 353 kts | 159° |
| 2026-04-21 10:24 | 62.78806 | 75.55805 | 11985 ft | 358 kts | 159° |
| 2026-04-21 10:24 | 62.76474 | 75.57783 | 12660 ft | 361 kts | 159° |
| 2026-04-21 10:24 | 62.74119 | 75.59775 | 13320 ft | 364 kts | 159° |
| 2026-04-21 10:24 | 62.71751 | 75.61776 | 13926 ft | 367 kts | 159° |
| 2026-04-21 10:25 | 62.69357 | 75.63796 | 14487 ft | 371 kts | 159° |
| 2026-04-21 10:25 | 62.66934 | 75.65837 | 15019 ft | 375 kts | 159° |
| 2026-04-21 10:25 | 62.64487 | 75.67892 | 15533 ft | 379 kts | 159° |
| 2026-04-21 10:25 | 62.62020 | 75.69962 | 16029 ft | 382 kts | 159° |
| 2026-04-21 10:26 | 62.59529 | 75.72048 | 16505 ft | 385 kts | 159° |
| 2026-04-21 10:26 | 62.57019 | 75.74146 | 16959 ft | 388 kts | 159° |
| 2026-04-21 10:26 | 62.54483 | 75.76262 | 17393 ft | 391 kts | 159° |
| 2026-04-21 10:26 | 62.51931 | 75.78386 | 17749 ft | 396 kts | 159° |
| 2026-04-21 10:27 | 62.49339 | 75.80542 | 18080 ft | 401 kts | 159° |
| 2026-04-21 10:27 | 62.46729 | 75.82706 | 18576 ft | 400 kts | 159° |
| 2026-04-21 10:27 | 62.44130 | 75.84859 | 18979 ft | 402 kts | 159° |
| 2026-04-21 10:27 | 62.41506 | 75.87027 | 19309 ft | 405 kts | 159° |
| 2026-04-21 10:28 | 62.38900 | 75.89178 | 19624 ft | 408 kts | 159° |
| 2026-04-21 10:28 | 62.36237 | 75.91370 | 19946 ft | 410 kts | 159° |
| 2026-04-21 10:28 | 62.33560 | 75.93570 | 20259 ft | 413 kts | 159° |
| 2026-04-21 10:28 | 62.30866 | 75.95780 | 20559 ft | 415 kts | 159° |
| 2026-04-21 10:29 | 62.28166 | 75.97991 | 20839 ft | 417 kts | 159° |
| 2026-04-21 10:29 | 62.25441 | 76.00218 | 20993 ft | 422 kts | 159° |
| 2026-04-21 10:29 | 62.22686 | 76.02465 | 21240 ft | 424 kts | 159° |
| 2026-04-21 10:29 | 62.19930 | 76.04707 | 21592 ft | 423 kts | 159° |
| 2026-04-21 10:30 | 62.17169 | 76.06895 | 21864 ft | 424 kts | 163° |
| 2026-04-21 10:30 | 62.14259 | 76.07889 | 21987 ft | 428 kts | 180° |
| 2026-04-21 10:30 | 62.11282 | 76.07457 | 22144 ft | 430 kts | 187° |
| 2026-04-21 10:30 | 62.08321 | 76.06644 | 22462 ft | 429 kts | 188° |
| 2026-04-21 10:31 | 62.05404 | 76.05756 | 22740 ft | 428 kts | 188° |
| 2026-04-21 10:31 | 62.02446 | 76.04836 | 22916 ft | 431 kts | 188° |
| 2026-04-21 10:31 | 61.99461 | 76.03897 | 22990 ft | 435 kts | 188° |
| 2026-04-21 10:31 | 61.96468 | 76.02953 | 23226 ft | 435 kts | 188° |
| 2026-04-21 10:32 | 61.93471 | 76.02005 | 23451 ft | 435 kts | 188° |
| 2026-04-21 10:32 | 61.90475 | 76.01060 | 23582 ft | 437 kts | 188° |
| 2026-04-21 10:32 | 61.87455 | 76.00108 | 23646 ft | 441 kts | 188° |
| 2026-04-21 10:32 | 61.84422 | 75.99156 | 23866 ft | 440 kts | 188° |
| 2026-04-21 10:33 | 61.81392 | 75.98207 | 24079 ft | 439 kts | 188° |
| 2026-04-21 10:33 | 61.78359 | 75.97261 | 24224 ft | 441 kts | 188° |
| 2026-04-21 10:33 | 61.75325 | 75.96318 | 24332 ft | 442 kts | 188° |
| 2026-04-21 10:33 | 61.72307 | 75.95384 | 24413 ft | 445 kts | 188° |
| 2026-04-21 10:34 | 61.69244 | 75.94440 | 24569 ft | 445 kts | 188° |
| 2026-04-21 10:34 | 61.66183 | 75.93500 | 24721 ft | 445 kts | 188° |
| 2026-04-21 10:34 | 61.63108 | 75.92559 | 24835 ft | 446 kts | 188° |
| 2026-04-21 10:34 | 61.60035 | 75.91623 | 24958 ft | 447 kts | 188° |
| 2026-04-21 10:35 | 61.56957 | 75.90689 | 25060 ft | 448 kts | 188° |
| 2026-04-21 10:35 | 61.53866 | 75.89755 | 25113 ft | 450 kts | 188° |
| 2026-04-21 10:35 | 61.50760 | 75.88819 | 25180 ft | 451 kts | 188° |
| 2026-04-21 10:35 | 61.47656 | 75.87889 | 25302 ft | 451 kts | 188° |
| 2026-04-21 10:36 | 61.44541 | 75.86958 | 25400 ft | 452 kts | 188° |
| 2026-04-21 10:36 | 61.41426 | 75.86032 | 25527 ft | 451 kts | 188° |
| 2026-04-21 10:36 | 61.38321 | 75.85113 | 25650 ft | 451 kts | 188° |
| 2026-04-21 10:36 | 61.35201 | 75.84193 | 25665 ft | 454 kts | 188° |
| 2026-04-21 10:37 | 61.32072 | 75.83275 | 25711 ft | 455 kts | 188° |
| 2026-04-21 10:37 | 61.28925 | 75.82354 | 25671 ft | 458 kts | 188° |
| 2026-04-21 10:37 | 61.25764 | 75.81434 | 25789 ft | 457 kts | 188° |
| 2026-04-21 10:37 | 61.22622 | 75.80523 | 25976 ft | 455 kts | 188° |
| 2026-04-21 10:38 | 61.19491 | 75.79619 | 26047 ft | 455 kts | 188° |
| 2026-04-21 10:38 | 61.16339 | 75.78713 | 26058 ft | 457 kts | 188° |
| 2026-04-21 10:38 | 61.13181 | 75.77809 | 26076 ft | 459 kts | 188° |
| 2026-04-21 10:38 | 61.10060 | 75.76920 | 26160 ft | 458 kts | 188° |
| 2026-04-21 10:39 | 61.06860 | 75.76012 | 26180 ft | 460 kts | 188° |
| 2026-04-21 10:39 | 61.03719 | 75.75124 | 26085 ft | 463 kts | 188° |
| 2026-04-21 10:39 | 61.00493 | 75.74217 | 26319 ft | 459 kts | 188° |
| 2026-04-21 10:39 | 60.97380 | 75.73345 | 26436 ft | 458 kts | 188° |
| 2026-04-21 10:40 | 60.94216 | 75.72463 | 26455 ft | 459 kts | 188° |
| 2026-04-21 10:40 | 60.91041 | 75.71582 | 26469 ft | 460 kts | 188° |
| 2026-04-21 10:40 | 60.87857 | 75.70702 | 26508 ft | 461 kts | 188° |
| 2026-04-21 10:40 | 60.84673 | 75.69826 | 26553 ft | 461 kts | 188° |
| 2026-04-21 10:41 | 60.81494 | 75.68955 | 26602 ft | 461 kts | 188° |
| 2026-04-21 10:41 | 60.78310 | 75.68086 | 26642 ft | 462 kts | 188° |
| 2026-04-21 10:41 | 60.75120 | 75.67219 | 26673 ft | 462 kts | 188° |
| 2026-04-21 10:41 | 60.71930 | 75.66356 | 26705 ft | 462 kts | 188° |
| 2026-04-21 10:42 | 60.68745 | 75.65498 | 26743 ft | 463 kts | 187° |
| 2026-04-21 10:42 | 60.65552 | 75.64642 | 26777 ft | 463 kts | 187° |
| 2026-04-21 10:42 | 60.62355 | 75.63789 | 26808 ft | 463 kts | 187° |
| 2026-04-21 10:42 | 60.59160 | 75.62939 | 26837 ft | 463 kts | 187° |
| 2026-04-21 10:43 | 60.55957 | 75.62091 | 26861 ft | 464 kts | 187° |
| 2026-04-21 10:43 | 60.52797 | 75.61259 | 26870 ft | 464 kts | 187° |
| 2026-04-21 10:43 | 60.49546 | 75.60406 | 26906 ft | 464 kts | 187° |
| 2026-04-21 10:43 | 60.46384 | 75.59580 | 26918 ft | 465 kts | 187° |
| 2026-04-21 10:44 | 60.43172 | 75.58745 | 26951 ft | 465 kts | 187° |
| 2026-04-21 10:44 | 60.39963 | 75.57914 | 26973 ft | 465 kts | 187° |
| 2026-04-21 10:44 | 60.36750 | 75.57086 | 26985 ft | 466 kts | 187° |
| 2026-04-21 10:44 | 60.33533 | 75.56261 | 27002 ft | 466 kts | 187° |
| 2026-04-21 10:45 | 60.30319 | 75.55440 | 27027 ft | 466 kts | 187° |
| 2026-04-21 10:45 | 60.28140 | 75.54886 | 27029 ft | 466 kts | 187° |
| 2026-04-21 10:45 | 60.24924 | 75.54071 | 27057 ft | 466 kts | 187° |
| 2026-04-21 10:45 | 60.21740 | 75.53268 | 27078 ft | 466 kts | 187° |
| 2026-04-21 10:46 | 60.18522 | 75.52460 | 27110 ft | 466 kts | 187° |
| 2026-04-21 10:46 | 60.15310 | 75.51657 | 27135 ft | 466 kts | 187° |
| 2026-04-21 10:46 | 60.12091 | 75.50856 | 27149 ft | 466 kts | 187° |
| 2026-04-21 10:46 | 60.08874 | 75.50060 | 27161 ft | 466 kts | 187° |
| 2026-04-21 10:47 | 60.05645 | 75.49264 | 27174 ft | 466 kts | 187° |
| 2026-04-21 10:47 | 60.02422 | 75.48473 | 27189 ft | 467 kts | 187° |
| 2026-04-21 10:47 | 59.99203 | 75.47687 | 27204 ft | 467 kts | 187° |
| 2026-04-21 10:47 | 59.95977 | 75.46904 | 27217 ft | 467 kts | 187° |
| 2026-04-21 10:48 | 59.92748 | 75.46122 | 27229 ft | 467 kts | 187° |
| 2026-04-21 10:48 | 59.89524 | 75.45346 | 27244 ft | 467 kts | 187° |
| 2026-04-21 10:48 | 59.86296 | 75.44572 | 27255 ft | 467 kts | 187° |
| 2026-04-21 10:48 | 59.83064 | 75.43802 | 27263 ft | 467 kts | 187° |
| 2026-04-21 10:49 | 59.79831 | 75.43034 | 27283 ft | 467 kts | 187° |
| 2026-04-21 10:49 | 59.76637 | 75.42279 | 27306 ft | 467 kts | 187° |
| 2026-04-21 10:49 | 59.73413 | 75.41520 | 27340 ft | 467 kts | 187° |
| 2026-04-21 10:49 | 59.70193 | 75.40766 | 27362 ft | 467 kts | 187° |
| 2026-04-21 10:50 | 59.66966 | 75.40014 | 27366 ft | 467 kts | 187° |
| 2026-04-21 10:50 | 59.63738 | 75.39264 | 27383 ft | 467 kts | 187° |
| 2026-04-21 10:50 | 59.60514 | 75.38520 | 27403 ft | 467 kts | 187° |
| 2026-04-21 10:50 | 59.57286 | 75.37778 | 27413 ft | 467 kts | 187° |
| 2026-04-21 10:51 | 59.54057 | 75.37038 | 27427 ft | 467 kts | 187° |
| 2026-04-21 10:51 | 59.50826 | 75.36303 | 27430 ft | 467 kts | 187° |
| 2026-04-21 10:51 | 59.47600 | 75.35571 | 27438 ft | 468 kts | 187° |
| 2026-04-21 10:51 | 59.44363 | 75.34840 | 27446 ft | 468 kts | 187° |
| 2026-04-21 10:52 | 59.41132 | 75.34115 | 27470 ft | 467 kts | 187° |
| 2026-04-21 10:52 | 59.37904 | 75.33393 | 27483 ft | 467 kts | 187° |
| 2026-04-21 10:52 | 59.34671 | 75.32673 | 27486 ft | 468 kts | 186° |
| 2026-04-21 10:52 | 59.31443 | 75.31959 | 27494 ft | 468 kts | 186° |
| 2026-04-21 10:53 | 59.28205 | 75.31245 | 27505 ft | 468 kts | 186° |
| 2026-04-21 10:53 | 59.24968 | 75.30535 | 27510 ft | 468 kts | 186° |
| 2026-04-21 10:53 | 59.21731 | 75.29829 | 27514 ft | 468 kts | 186° |
| 2026-04-21 10:53 | 59.18495 | 75.29126 | 27523 ft | 468 kts | 186° |
| 2026-04-21 10:54 | 59.15258 | 75.28425 | 27527 ft | 468 kts | 186° |
| 2026-04-21 10:54 | 59.12016 | 75.27728 | 27537 ft | 468 kts | 186° |
| 2026-04-21 10:54 | 59.08774 | 75.27034 | 27545 ft | 468 kts | 186° |
| 2026-04-21 10:54 | 59.05537 | 75.26344 | 27548 ft | 468 kts | 186° |
| 2026-04-21 10:55 | 59.02302 | 75.25659 | 27554 ft | 468 kts | 186° |
| 2026-04-21 10:55 | 58.99062 | 75.24975 | 27563 ft | 468 kts | 186° |
| 2026-04-21 10:55 | 58.95816 | 75.24294 | 27572 ft | 468 kts | 186° |
| 2026-04-21 10:55 | 58.92573 | 75.23616 | 27577 ft | 468 kts | 186° |
| 2026-04-21 10:56 | 58.89330 | 75.22942 | 27579 ft | 469 kts | 186° |
| 2026-04-21 10:56 | 58.86089 | 75.22272 | 27584 ft | 469 kts | 186° |
| 2026-04-21 10:56 | 58.82851 | 75.21605 | 27588 ft | 469 kts | 186° |
| 2026-04-21 10:56 | 58.79602 | 75.20940 | 27603 ft | 468 kts | 186° |
| 2026-04-21 10:57 | 58.76362 | 75.20280 | 27609 ft | 468 kts | 186° |
| 2026-04-21 10:57 | 58.73121 | 75.19622 | 27619 ft | 468 kts | 186° |
| 2026-04-21 10:57 | 58.69923 | 75.18977 | 27624 ft | 468 kts | 186° |
| 2026-04-21 10:57 | 58.66686 | 75.18326 | 27627 ft | 468 kts | 186° |
| 2026-04-21 10:58 | 58.63432 | 75.17676 | 27630 ft | 469 kts | 186° |
| 2026-04-21 10:58 | 58.60193 | 75.17031 | 27638 ft | 469 kts | 186° |
| 2026-04-21 10:58 | 58.56952 | 75.16390 | 27646 ft | 469 kts | 186° |
| 2026-04-21 10:58 | 58.53699 | 75.15749 | 27650 ft | 469 kts | 186° |
| 2026-04-21 10:59 | 58.50460 | 75.15114 | 27653 ft | 469 kts | 186° |
| 2026-04-21 10:59 | 58.47216 | 75.14481 | 27655 ft | 469 kts | 186° |
| 2026-04-21 10:59 | 58.43966 | 75.13851 | 27658 ft | 469 kts | 186° |
| 2026-04-21 10:59 | 58.40716 | 75.13223 | 27660 ft | 469 kts | 186° |
| 2026-04-21 11:00 | 58.37470 | 75.12600 | 27666 ft | 469 kts | 186° |
| 2026-04-21 11:00 | 58.34225 | 75.11980 | 27667 ft | 469 kts | 186° |
| 2026-04-21 11:00 | 58.30978 | 75.11362 | 27675 ft | 469 kts | 186° |
| 2026-04-21 11:00 | 58.27731 | 75.10748 | 27679 ft | 469 kts | 186° |
| 2026-04-21 11:01 | 58.24484 | 75.10136 | 27682 ft | 469 kts | 186° |
| 2026-04-21 11:01 | 58.21283 | 75.09537 | 27685 ft | 469 kts | 186° |
| 2026-04-21 11:01 | 58.17997 | 75.08925 | 27687 ft | 469 kts | 186° |
| 2026-04-21 11:02 | 58.11542 | 75.07732 | 27699 ft | 469 kts | 186° |
| 2026-04-21 11:02 | 58.08297 | 75.07137 | 27703 ft | 469 kts | 186° |
| 2026-04-21 11:02 | 58.05051 | 75.06544 | 27711 ft | 469 kts | 186° |
| 2026-04-21 11:02 | 58.01805 | 75.05955 | 27714 ft | 469 kts | 186° |
| 2026-04-21 11:03 | 57.98558 | 75.05368 | 27721 ft | 469 kts | 186° |
| 2026-04-21 11:03 | 57.95309 | 75.04785 | 27725 ft | 469 kts | 186° |
| 2026-04-21 11:03 | 57.92060 | 75.04205 | 27731 ft | 469 kts | 186° |
| 2026-04-21 11:03 | 57.88816 | 75.03628 | 27733 ft | 469 kts | 185° |
| 2026-04-21 11:04 | 57.85565 | 75.03053 | 27736 ft | 469 kts | 185° |
| 2026-04-21 11:04 | 57.82314 | 75.02482 | 27739 ft | 469 kts | 185° |
| 2026-04-21 11:04 | 57.79069 | 75.01914 | 27742 ft | 469 kts | 185° |
| 2026-04-21 11:04 | 57.75817 | 75.01348 | 27747 ft | 469 kts | 185° |
| 2026-04-21 11:05 | 57.72567 | 75.00785 | 27750 ft | 469 kts | 185° |
| 2026-04-21 11:05 | 57.69317 | 75.00225 | 27757 ft | 469 kts | 185° |
| 2026-04-21 11:05 | 57.66071 | 74.99669 | 27760 ft | 469 kts | 185° |
| 2026-04-21 11:05 | 57.62821 | 74.99115 | 27765 ft | 469 kts | 185° |
| 2026-04-21 11:06 | 57.59564 | 74.98563 | 27774 ft | 469 kts | 185° |
| 2026-04-21 11:06 | 57.56315 | 74.98015 | 27776 ft | 469 kts | 185° |
| 2026-04-21 11:06 | 57.53066 | 74.97469 | 27778 ft | 469 kts | 185° |
| 2026-04-21 11:06 | 57.49818 | 74.96928 | 27785 ft | 469 kts | 185° |
| 2026-04-21 11:07 | 57.46569 | 74.96388 | 27787 ft | 469 kts | 185° |
| 2026-04-21 11:07 | 57.43319 | 74.95852 | 27790 ft | 469 kts | 185° |
| 2026-04-21 11:07 | 57.40114 | 74.95326 | 27799 ft | 469 kts | 185° |
| 2026-04-21 11:07 | 57.36858 | 74.94795 | 27806 ft | 469 kts | 185° |
| 2026-04-21 11:08 | 57.33565 | 74.94260 | 27812 ft | 469 kts | 185° |
| 2026-04-21 11:08 | 57.30358 | 74.93742 | 27815 ft | 469 kts | 185° |
| 2026-04-21 11:08 | 57.27109 | 74.93221 | 27826 ft | 469 kts | 185° |
| 2026-04-21 11:08 | 57.23860 | 74.92702 | 27832 ft | 469 kts | 185° |
| 2026-04-21 11:09 | 57.20607 | 74.92185 | 27838 ft | 469 kts | 185° |
| 2026-04-21 11:09 | 57.17355 | 74.91672 | 27847 ft | 469 kts | 185° |
| 2026-04-21 11:09 | 57.14104 | 74.91161 | 27857 ft | 469 kts | 185° |
| 2026-04-21 11:09 | 57.10853 | 74.90654 | 27866 ft | 469 kts | 185° |
| 2026-04-21 11:10 | 57.07599 | 74.90149 | 27868 ft | 469 kts | 185° |
| 2026-04-21 11:10 | 57.04355 | 74.89648 | 27880 ft | 469 kts | 185° |
| 2026-04-21 11:10 | 57.01098 | 74.89148 | 27886 ft | 469 kts | 185° |
| 2026-04-21 11:10 | 56.97850 | 74.88652 | 27895 ft | 469 kts | 185° |
| 2026-04-21 11:11 | 56.94597 | 74.88159 | 27900 ft | 469 kts | 185° |
| 2026-04-21 11:11 | 56.91345 | 74.87668 | 27907 ft | 469 kts | 185° |
| 2026-04-21 11:11 | 56.88089 | 74.87180 | 27914 ft | 469 kts | 185° |
| 2026-04-21 11:11 | 56.84882 | 74.86701 | 27921 ft | 469 kts | 185° |
| 2026-04-21 11:12 | 56.81589 | 74.86213 | 27925 ft | 469 kts | 185° |
| 2026-04-21 11:12 | 56.78381 | 74.85740 | 27932 ft | 469 kts | 185° |
| 2026-04-21 11:12 | 56.75091 | 74.85257 | 27938 ft | 469 kts | 185° |
| 2026-04-21 11:12 | 56.71881 | 74.84789 | 27942 ft | 469 kts | 185° |
| 2026-04-21 11:13 | 56.68630 | 74.84318 | 27944 ft | 469 kts | 185° |
| 2026-04-21 11:13 | 56.65374 | 74.83848 | 27969 ft | 468 kts | 185° |
| 2026-04-21 11:13 | 56.62132 | 74.83384 | 27996 ft | 468 kts | 185° |
| 2026-04-21 11:13 | 56.58884 | 74.82921 | 27997 ft | 468 kts | 185° |
| 2026-04-21 11:14 | 56.55630 | 74.82460 | 28000 ft | 468 kts | 185° |
| 2026-04-21 11:14 | 56.52382 | 74.82002 | 28005 ft | 468 kts | 185° |
| 2026-04-21 11:14 | 56.45886 | 74.81095 | 28013 ft | 468 kts | 185° |
| 2026-04-21 11:15 | 56.39381 | 74.80197 | 28023 ft | 469 kts | 185° |
| 2026-04-21 11:15 | 56.32876 | 74.79310 | 28033 ft | 469 kts | 184° |
| 2026-04-21 11:16 | 56.26369 | 74.78433 | 28049 ft | 468 kts | 184° |
| 2026-04-21 11:16 | 56.22063 | 74.77858 | 28054 ft | 469 kts | 184° |